^^
Vremenska postaja Bezina
 
Daily Summary for January 20, 2020 Units:  Metric    English   Both
Daily Weekly Monthly Yearly Custom
  Current: High: Low: Average:
Temperature: 3.1 °C 3.1 °C -3.1 °C -0.6 °C
Dew Point: 1.3 °C 1.3 °C -3.9 °C -1.4 °C
Humidity: 88% 96% 87% 94%
Wind Speed: 1.6km/h 3.2km/h 0.0km/h 0.2km/h
Wind Gust: 8.0km/h 8.0km/h - -
WindSSE - - SSE
Pressure: 1045.3 hPa 1045.4 hPa 1038.5 hPa -
Precipitation: 0.3 mm      
Historical Graphs
 
 
Tabular Data for January 20, 2020
Time Temperature Dew Point Pressure Wind Wind Speed Wind Gust Humidity Rainfall Rate (Hourly)
00:00 -2.6 °C -3.4 °C 1038.5 hPa Calm     94% 0.0 mm
00:15 -2.7 °C -3.5 °C 1038.5 hPa Calm     94% 0.0 mm
00:30 -2.7 °C -3.5 °C 1038.6 hPa Calm     94% 0.0 mm
00:45 -2.7 °C -3.6 °C 1038.8 hPa Calm     94% 0.0 mm
01:00 -2.8 °C -3.7 °C 1038.9 hPa Calm     94% 0.0 mm
01:15 -2.8 °C -3.7 °C 1039.1 hPa Calm     94% 0.0 mm
01:30 -2.9 °C -3.8 °C 1039.3 hPa Calm     94% 0.0 mm
01:45 -2.9 °C -3.6 °C 1039.4 hPa Calm     95% 0.0 mm
02:00 -3.0 °C -3.8 °C 1039.7 hPa Calm     94% 0.0 mm
02:15 -3.0 °C -3.8 °C 1039.8 hPa Calm     94% 0.0 mm
02:30 -3.1 °C -3.9 °C 1039.9 hPa Calm     94% 0.0 mm
02:45 -3.0 °C -3.7 °C 1040.0 hPa Calm     95% 0.0 mm
03:00 -2.8 °C -3.5 °C 1040.2 hPa Calm     95% 0.0 mm
03:15 -2.3 °C -2.9 °C 1040.3 hPa Calm     96% 0.0 mm
03:30 -2.0 °C -2.6 °C 1040.4 hPa Calm     96% 0.0 mm
03:45 -1.8 °C -2.6 °C 1040.5 hPa Calm     95% 0.0 mm
04:00 -1.8 °C -2.5 °C 1040.5 hPa Calm     95% 0.0 mm
04:15 -1.6 °C -2.2 °C 1040.8 hPa Calm     96% 0.0 mm
04:30 -1.5 °C -2.2 °C 1040.9 hPa Calm     95% 0.0 mm
04:45 -1.4 °C -2.1 °C 1041.1 hPa Calm     95% 0.0 mm
05:00 -1.3 °C -1.8 °C 1041.2 hPa Calm     96% 0.0 mm
05:15 -1.1 °C -1.6 °C 1041.2 hPa Calm     96% 0.0 mm
05:30 -0.8 °C -1.4 °C 1041.5 hPa Calm   3.2 km/h 96% 0.0 mm
05:45 -0.8 °C -1.5 °C 1041.7 hPa Calm     95% 0.0 mm
06:00 -0.8 °C -1.5 °C 1042.0 hPa Calm     95% 0.0 mm
06:15 -0.7 °C -1.4 °C 1042.2 hPa Calm     95% 0.0 mm
06:30 -0.7 °C -1.2 °C 1042.3 hPa Calm     96% 0.0 mm
06:45 -0.7 °C -1.3 °C 1042.5 hPa Calm     96% 0.0 mm
07:00 -0.7 °C -1.3 °C 1042.7 hPa Calm     96% 0.0 mm
07:15 -0.7 °C -1.2 °C 1042.7 hPa Calm     96% 0.0 mm
07:30 -0.6 °C -1.1 °C 1042.8 hPa Calm     96% 0.0 mm
07:45 -0.6 °C -1.1 °C 1043.0 hPa Calm     96% 0.0 mm
08:00 -0.5 °C -1.1 °C 1043.2 hPa Calm     96% 0.0 mm
08:15 -0.4 °C -0.9 °C 1043.4 hPa Calm     96% 0.0 mm
08:30 -0.3 °C -0.9 °C 1043.6 hPa Calm     96% 0.0 mm
08:45 -0.2 °C -0.8 °C 1043.7 hPa Calm     96% 0.0 mm
09:00 0.0 °C -0.6 °C 1043.7 hPa Calm     96% 0.0 mm
09:15 0.3 °C -0.3 °C 1044.0 hPa Calm     96% 0.0 mm
09:30 0.6 °C 0.0 °C 1044.2 hPa Calm     96% 0.0 mm
09:45 0.8 °C 0.3 °C 1044.4 hPa Calm     96% 0.3 mm
10:00 1.0 °C 0.4 °C 1044.5 hPa Calm   1.6 km/h 96% 0.3 mm
10:15 1.3 °C 0.6 °C 1044.8 hPa Calm   4.8 km/h 95% 0.3 mm
10:30 1.7 °C 0.8 °C 1045.1 hPa Calm   4.8 km/h 94% 0.3 mm
10:45 2.1 °C 0.9 °C 1045.2 hPa Calm   3.2 km/h 92% 0.0 mm
11:00 2.3 °C 0.8 °C 1045.3 hPa Calm   6.4 km/h 90% 0.0 mm
11:15 2.4 °C 0.9 °C 1045.3 hPa South 3.2 km/h 8.0 km/h 90% 0.0 mm
11:30 2.6 °C 0.9 °C 1045.3 hPa South 1.6 km/h 8.0 km/h 89% 0.0 mm
11:45 2.8 °C 1.0 °C 1045.4 hPa SE 3.2 km/h 8.0 km/h 88% 0.0 mm
12:00 2.8 °C 1.0 °C 1045.4 hPa Calm   6.4 km/h 88% 0.0 mm
12:15 2.9 °C 0.9 °C 1045.3 hPa Calm   6.4 km/h 87% 0.0 mm
12:30 2.9 °C 1.0 °C 1045.4 hPa Calm   8.0 km/h 87% 0.0 mm
12:45 3.1 °C 1.3 °C 1045.3 hPa SSE 1.6 km/h 8.0 km/h 88% 0.0 mm
Juneau County Weather
Compliments of Weather Underground - 1.25 mb